Acorn Park, Oregon
Current Conditions -  °F | °C
As of 1:54 AM on Sunday 21 Dec 2014 (Local Time) from KEUG Reporting Station
Overcast Overcast  
Wind Chill: 14°   Ceiling: 1900
Heat Index: 14°   Visibility: 10mi
Dew Point: 12°   Wind: 13mph
Humidity: 87%   Direction: 210°SSW
Pressure: 29.94"   Gusts: NA
Location:  44.0318°N, 123.235°W
Report Text: KEUG 210954Z AUTO 21011KT 10SM BKN019 OVC025 14/12 A2994 RMK AO2 RAB11E22 SLP139 P0000 T01440122
Loading
Personal Weather Stations






























Interactive Weather Map New forecast layout! Learn more

10-Day Weather Forecast

Advertisements
Track Severe Weather on mobile